sensor_id;sensor_type;location;lat;lon;timestamp;P1;durP1;ratioP1;P2;durP2;ratioP2
6531;SDS011;3299;42.004;24.868;2023-03-01T07:55:43;3.28;;;2.70;;
6531;SDS011;3299;42.004;24.868;2023-03-01T07:58:09;2.38;;;2.17;;
6531;SDS011;3299;42.004;24.868;2023-03-01T08:00:34;3.15;;;2.47;;
6531;SDS011;3299;42.004;24.868;2023-03-01T08:03:00;3.45;;;3.15;;
6531;SDS011;3299;42.004;24.868;2023-03-01T08:05:26;2.20;;;2.10;;
6531;SDS011;3299;42.004;24.868;2023-03-01T08:07:52;1.70;;;1.60;;
6531;SDS011;3299;42.004;24.868;2023-03-01T08:10:18;2.72;;;2.63;;
6531;SDS011;3299;42.004;24.868;2023-03-01T08:12:44;3.17;;;2.47;;
6531;SDS011;3299;42.004;24.868;2023-03-01T08:15:09;1.88;;;1.77;;
6531;SDS011;3299;42.004;24.868;2023-03-01T08:17:35;2.00;;;1.90;;
6531;SDS011;3299;42.004;24.868;2023-03-01T08:20:01;1.70;;;1.60;;
6531;SDS011;3299;42.004;24.868;2023-03-01T08:22:28;3.97;;;2.13;;
6531;SDS011;3299;42.004;24.868;2023-03-01T08:24:53;4.10;;;2.17;;
6531;SDS011;3299;42.004;24.868;2023-03-01T08:27:20;2.53;;;2.33;;
6531;SDS011;3299;42.004;24.868;2023-03-01T08:29:46;3.35;;;3.05;;
6531;SDS011;3299;42.004;24.868;2023-03-01T08:32:12;5.82;;;3.17;;
6531;SDS011;3299;42.004;24.868;2023-03-01T08:34:37;3.15;;;2.85;;
6531;SDS011;3299;42.004;24.868;2023-03-01T08:37:02;6.68;;;3.15;;
6531;SDS011;3299;42.004;24.868;2023-03-01T08:39:28;5.05;;;2.90;;
6531;SDS011;3299;42.004;24.868;2023-03-01T08:41:53;3.08;;;2.88;;
6531;SDS011;3299;42.004;24.868;2023-03-01T08:44:19;2.60;;;2.38;;
6531;SDS011;3299;42.004;24.868;2023-03-01T08:46:45;3.88;;;3.17;;
6531;SDS011;3299;42.004;24.868;2023-03-01T08:49:12;3.50;;;3.20;;
6531;SDS011;3299;42.004;24.868;2023-03-01T08:51:40;4.13;;;3.45;;
6531;SDS011;3299;42.004;24.868;2023-03-01T08:54:06;3.22;;;2.88;;
6531;SDS011;3299;42.004;24.868;2023-03-01T08:56:35;3.60;;;2.58;;
6531;SDS011;3299;42.004;24.868;2023-03-01T08:59:00;4.10;;;2.83;;
6531;SDS011;3299;42.004;24.868;2023-03-01T09:01:26;3.30;;;3.00;;
6531;SDS011;3299;42.004;24.868;2023-03-01T09:03:53;3.65;;;3.35;;
6531;SDS011;3299;42.004;24.868;2023-03-01T09:06:18;3.67;;;3.38;;
6531;SDS011;3299;42.004;24.868;2023-03-01T09:08:45;3.38;;;3.08;;
6531;SDS011;3299;42.004;24.868;2023-03-01T09:11:13;5.88;;;4.57;;
6531;SDS011;3299;42.004;24.868;2023-03-01T09:13:40;3.83;;;3.53;;
6531;SDS011;3299;42.004;24.868;2023-03-01T09:16:06;5.25;;;4.13;;
6531;SDS011;3299;42.004;24.868;2023-03-01T09:18:33;15.10;;;7.15;;
6531;SDS011;3299;42.004;24.868;2023-03-01T09:21:06;8.85;;;4.03;;
6531;SDS011;3299;42.004;24.868;2023-03-01T09:23:40;9.38;;;5.45;;
6531;SDS011;3299;42.004;24.868;2023-03-01T09:26:07;15.00;;;7.88;;
6531;SDS011;3299;42.004;24.868;2023-03-01T09:28:39;5.82;;;4.57;;
6531;SDS011;3299;42.004;24.868;2023-03-01T09:31:08;9.65;;;4.88;;
6531;SDS011;3299;42.004;24.868;2023-03-01T09:33:33;3.05;;;2.80;;
6531;SDS011;3299;42.004;24.868;2023-03-01T09:35:59;4.10;;;3.70;;
6531;SDS011;3299;42.004;24.868;2023-03-01T09:38:26;6.60;;;5.05;;
6531;SDS011;3299;42.004;24.868;2023-03-01T09:40:52;6.32;;;4.50;;
6531;SDS011;3299;42.004;24.868;2023-03-01T09:45:58;4.28;;;3.67;;
6531;SDS011;3299;42.004;24.868;2023-03-01T09:48:29;5.95;;;4.43;;
6531;SDS011;3299;42.004;24.868;2023-03-01T09:51:02;9.10;;;6.93;;
6531;SDS011;3299;42.004;24.868;2023-03-01T09:53:34;9.68;;;3.83;;
6531;SDS011;3299;42.004;24.868;2023-03-01T09:56:19;4.22;;;3.60;;
6531;SDS011;3299;42.004;24.868;2023-03-01T10:04:46;24.60;;;13.52;;
6531;SDS011;3299;42.004;24.868;2023-03-01T10:10:06;39.90;;;15.65;;
6531;SDS011;3299;42.004;24.868;2023-03-01T10:12:35;9.50;;;6.53;;
6531;SDS011;3299;42.004;24.868;2023-03-01T10:17:57;6.50;;;4.88;;
6531;SDS011;3299;42.004;24.868;2023-03-01T10:20:42;4.40;;;4.00;;
6531;SDS011;3299;42.004;24.868;2023-03-01T10:23:15;5.63;;;5.10;;
6531;SDS011;3299;42.004;24.868;2023-03-01T10:29:30;9.23;;;7.07;;
6531;SDS011;3299;42.004;24.868;2023-03-01T10:31:32;7.13;;;5.47;;
6531;SDS011;3299;42.004;24.868;2023-03-01T10:34:12;5.65;;;3.78;;
6531;SDS011;3299;42.004;24.868;2023-03-01T10:36:40;52.75;;;19.90;;
6531;SDS011;3299;42.004;24.868;2023-03-01T10:39:40;35.97;;;18.05;;
6531;SDS011;3299;42.004;24.868;2023-03-01T10:42:02;5.80;;;4.63;;
6531;SDS011;3299;42.004;24.868;2023-03-01T10:47:03;11.70;;;7.70;;
6531;SDS011;3299;42.004;24.868;2023-03-01T10:49:29;6.53;;;5.47;;
6531;SDS011;3299;42.004;24.868;2023-03-01T10:51:54;8.15;;;7.03;;
6531;SDS011;3299;42.004;24.868;2023-03-01T10:54:30;2.85;;;2.65;;
6531;SDS011;3299;42.004;24.868;2023-03-01T10:56:58;6.30;;;4.50;;
6531;SDS011;3299;42.004;24.868;2023-03-01T10:59:27;5.90;;;5.30;;
6531;SDS011;3299;42.004;24.868;2023-03-01T11:02:22;4.07;;;3.78;;
6531;SDS011;3299;42.004;24.868;2023-03-01T11:07:51;5.32;;;3.88;;
6531;SDS011;3299;42.004;24.868;2023-03-01T11:10:28;62.22;;;26.45;;
6531;SDS011;3299;42.004;24.868;2023-03-01T11:15:59;46.47;;;17.70;;
6531;SDS011;3299;42.004;24.868;2023-03-01T11:18:31;45.03;;;17.50;;
6531;SDS011;3299;42.004;24.868;2023-03-01T11:20:56;20.75;;;10.10;;
6531;SDS011;3299;42.004;24.868;2023-03-01T11:23:25;10.63;;;5.45;;
6531;SDS011;3299;42.004;24.868;2023-03-01T11:25:56;31.73;;;13.88;;
6531;SDS011;3299;42.004;24.868;2023-03-01T11:28:25;9.88;;;6.75;;
6531;SDS011;3299;42.004;24.868;2023-03-01T11:30:54;29.58;;;15.07;;
6531;SDS011;3299;42.004;24.868;2023-03-01T11:33:41;122.07;;;40.80;;
6531;SDS011;3299;42.004;24.868;2023-03-01T11:38:55;122.53;;;44.28;;
6531;SDS011;3299;42.004;24.868;2023-03-01T11:41:23;45.30;;;21.25;;
6531;SDS011;3299;42.004;24.868;2023-03-01T11:44:00;10.32;;;9.20;;
6531;SDS011;3299;42.004;24.868;2023-03-01T11:57:00;6.30;;;4.55;;
6531;SDS011;3299;42.004;24.868;2023-03-01T12:10:23;83.18;;;31.27;;
6531;SDS011;3299;42.004;24.868;2023-03-01T12:18:51;35.67;;;16.33;;
6531;SDS011;3299;42.004;24.868;2023-03-01T12:29:58;8.88;;;4.70;;
6531;SDS011;3299;42.004;24.868;2023-03-01T12:32:54;10.95;;;8.57;;
6531;SDS011;3299;42.004;24.868;2023-03-01T12:50:18;7.65;;;5.32;;
6531;SDS011;3299;42.004;24.868;2023-03-01T12:52:44;4.43;;;4.03;;
6531;SDS011;3299;42.004;24.868;2023-03-01T12:55:22;13.35;;;9.27;;
6531;SDS011;3299;42.004;24.868;2023-03-01T13:01:00;6.78;;;6.03;;
6531;SDS011;3299;42.004;24.868;2023-03-01T13:09:33;7.20;;;5.03;;
6531;SDS011;3299;42.004;24.868;2023-03-01T13:12:41;5.25;;;4.20;;
6531;SDS011;3299;42.004;24.868;2023-03-01T13:15:41;5.90;;;5.25;;
6531;SDS011;3299;42.004;24.868;2023-03-01T13:20:33;10.43;;;8.23;;
6531;SDS011;3299;42.004;24.868;2023-03-01T13:31:06;8.98;;;7.25;;
6531;SDS011;3299;42.004;24.868;2023-03-01T13:33:33;6.60;;;5.50;;
6531;SDS011;3299;42.004;24.868;2023-03-01T13:36:09;7.63;;;6.15;;
6531;SDS011;3299;42.004;24.868;2023-03-01T13:38:48;4.65;;;4.30;;
6531;SDS011;3299;42.004;24.868;2023-03-01T13:52:00;6.90;;;6.20;;
6531;SDS011;3299;42.004;24.868;2023-03-01T13:54:29;7.13;;;5.88;;
6531;SDS011;3299;42.004;24.868;2023-03-01T13:56:57;7.20;;;5.93;;
6531;SDS011;3299;42.004;24.868;2023-03-01T13:59:26;7.22;;;5.53;;
6531;SDS011;3299;42.004;24.868;2023-03-01T14:01:56;6.82;;;5.93;;
6531;SDS011;3299;42.004;24.868;2023-03-01T14:04:24;6.15;;;5.55;;
6531;SDS011;3299;42.004;24.868;2023-03-01T14:09:36;9.45;;;6.07;;
6531;SDS011;3299;42.004;24.868;2023-03-01T14:12:18;7.53;;;6.28;;
6531;SDS011;3299;42.004;24.868;2023-03-01T14:17:52;6.82;;;6.13;;
6531;SDS011;3299;42.004;24.868;2023-03-01T14:20:20;9.02;;;7.63;;
6531;SDS011;3299;42.004;24.868;2023-03-01T14:22:48;8.57;;;7.18;;
6531;SDS011;3299;42.004;24.868;2023-03-01T14:25:23;7.30;;;6.60;;
6531;SDS011;3299;42.004;24.868;2023-03-01T14:27:58;12.20;;;10.18;;
6531;SDS011;3299;42.004;24.868;2023-03-01T14:30:43;8.32;;;6.90;;
6531;SDS011;3299;42.004;24.868;2023-03-01T14:33:20;7.70;;;6.55;;
6531;SDS011;3299;42.004;24.868;2023-03-01T14:36:02;10.18;;;9.15;;
6531;SDS011;3299;42.004;24.868;2023-03-01T14:38:48;7.40;;;5.82;;
6531;SDS011;3299;42.004;24.868;2023-03-01T14:41:17;8.48;;;7.13;;
6531;SDS011;3299;42.004;24.868;2023-03-01T14:43:50;6.65;;;5.80;;
6531;SDS011;3299;42.004;24.868;2023-03-01T14:46:21;6.95;;;5.60;;
6531;SDS011;3299;42.004;24.868;2023-03-01T14:48:54;11.65;;;9.23;;
6531;SDS011;3299;42.004;24.868;2023-03-01T14:51:26;12.77;;;10.32;;
6531;SDS011;3299;42.004;24.868;2023-03-01T14:53:51;12.18;;;8.88;;
6531;SDS011;3299;42.004;24.868;2023-03-01T14:56:17;8.07;;;6.35;;
6531;SDS011;3299;42.004;24.868;2023-03-01T14:58:43;10.00;;;7.88;;
6531;SDS011;3299;42.004;24.868;2023-03-01T15:01:10;10.93;;;8.57;;
6531;SDS011;3299;42.004;24.868;2023-03-01T15:03:47;9.88;;;8.43;;
6531;SDS011;3299;42.004;24.868;2023-03-01T15:06:16;7.50;;;6.75;;
6531;SDS011;3299;42.004;24.868;2023-03-01T15:08:47;8.88;;;7.18;;
6531;SDS011;3299;42.004;24.868;2023-03-01T15:13:42;5.13;;;4.60;;
6531;SDS011;3299;42.004;24.868;2023-03-01T15:16:11;7.32;;;6.10;;
6531;SDS011;3299;42.004;24.868;2023-03-01T15:18:46;5.80;;;5.20;;
6531;SDS011;3299;42.004;24.868;2023-03-01T15:24:25;7.25;;;5.90;;
6531;SDS011;3299;42.004;24.868;2023-03-01T15:26:52;6.47;;;5.88;;
6531;SDS011;3299;42.004;24.868;2023-03-01T15:29:23;6.45;;;5.78;;
6531;SDS011;3299;42.004;24.868;2023-03-01T15:32:04;5.20;;;4.70;;
6531;SDS011;3299;42.004;24.868;2023-03-01T15:34:33;8.25;;;6.35;;
6531;SDS011;3299;42.004;24.868;2023-03-01T15:37:02;7.00;;;6.32;;
6531;SDS011;3299;42.004;24.868;2023-03-01T15:39:34;7.05;;;6.35;;
6531;SDS011;3299;42.004;24.868;2023-03-01T15:42:44;15.48;;;11.70;;
6531;SDS011;3299;42.004;24.868;2023-03-01T15:47:43;11.90;;;9.05;;
6531;SDS011;3299;42.004;24.868;2023-03-01T15:50:21;11.93;;;9.23;;
6531;SDS011;3299;42.004;24.868;2023-03-01T15:52:49;10.73;;;8.55;;
6531;SDS011;3299;42.004;24.868;2023-03-01T15:58:03;10.32;;;8.98;;
6531;SDS011;3299;42.004;24.868;2023-03-01T16:00:37;26.10;;;19.17;;
6531;SDS011;3299;42.004;24.868;2023-03-01T16:03:04;37.85;;;25.63;;
6531;SDS011;3299;42.004;24.868;2023-03-01T16:05:34;14.63;;;10.85;;
6531;SDS011;3299;42.004;24.868;2023-03-01T16:08:01;11.52;;;7.25;;
6531;SDS011;3299;42.004;24.868;2023-03-01T16:10:27;7.07;;;6.28;;
6531;SDS011;3299;42.004;24.868;2023-03-01T16:12:53;8.77;;;6.47;;
6531;SDS011;3299;42.004;24.868;2023-03-01T16:17:46;15.38;;;11.20;;
6531;SDS011;3299;42.004;24.868;2023-03-01T16:20:12;15.45;;;12.05;;
6531;SDS011;3299;42.004;24.868;2023-03-01T16:22:41;17.35;;;11.75;;
6531;SDS011;3299;42.004;24.868;2023-03-01T16:25:08;15.10;;;12.15;;
6531;SDS011;3299;42.004;24.868;2023-03-01T16:27:35;19.60;;;13.95;;
6531;SDS011;3299;42.004;24.868;2023-03-01T16:30:01;13.05;;;9.43;;
6531;SDS011;3299;42.004;24.868;2023-03-01T16:32:26;14.38;;;10.02;;
6531;SDS011;3299;42.004;24.868;2023-03-01T16:34:51;13.30;;;8.73;;
6531;SDS011;3299;42.004;24.868;2023-03-01T16:37:17;10.65;;;6.72;;
6531;SDS011;3299;42.004;24.868;2023-03-01T16:39:46;5.95;;;5.13;;
6531;SDS011;3299;42.004;24.868;2023-03-01T16:42:14;8.93;;;6.82;;
6531;SDS011;3299;42.004;24.868;2023-03-01T16:44:41;11.23;;;8.32;;
6531;SDS011;3299;42.004;24.868;2023-03-01T16:47:06;10.05;;;7.35;;
6531;SDS011;3299;42.004;24.868;2023-03-01T16:49:32;9.18;;;7.13;;
6531;SDS011;3299;42.004;24.868;2023-03-01T16:51:57;8.50;;;6.30;;
6531;SDS011;3299;42.004;24.868;2023-03-01T16:54:24;7.80;;;6.78;;
6531;SDS011;3299;42.004;24.868;2023-03-01T16:56:49;9.13;;;7.95;;
6531;SDS011;3299;42.004;24.868;2023-03-01T16:59:14;8.40;;;7.40;;
6531;SDS011;3299;42.004;24.868;2023-03-01T17:01:40;8.98;;;7.60;;
6531;SDS011;3299;42.004;24.868;2023-03-01T17:04:06;10.40;;;8.77;;
6531;SDS011;3299;42.004;24.868;2023-03-01T17:06:35;17.42;;;11.65;;
6531;SDS011;3299;42.004;24.868;2023-03-01T17:09:00;19.52;;;11.25;;
6531;SDS011;3299;42.004;24.868;2023-03-01T17:11:26;12.00;;;9.32;;
6531;SDS011;3299;42.004;24.868;2023-03-01T17:13:52;11.60;;;9.18;;
6531;SDS011;3299;42.004;24.868;2023-03-01T17:16:18;12.98;;;9.00;;
6531;SDS011;3299;42.004;24.868;2023-03-01T17:18:45;14.40;;;10.30;;
6531;SDS011;3299;42.004;24.868;2023-03-01T17:21:10;17.17;;;11.73;;
6531;SDS011;3299;42.004;24.868;2023-03-01T17:23:38;17.25;;;12.60;;
6531;SDS011;3299;42.004;24.868;2023-03-01T17:26:07;14.52;;;11.07;;
6531;SDS011;3299;42.004;24.868;2023-03-01T17:28:33;18.13;;;12.85;;
6531;SDS011;3299;42.004;24.868;2023-03-01T17:30:59;16.08;;;12.00;;
6531;SDS011;3299;42.004;24.868;2023-03-01T17:33:26;15.18;;;11.73;;
6531;SDS011;3299;42.004;24.868;2023-03-01T17:35:55;15.10;;;11.88;;
6531;SDS011;3299;42.004;24.868;2023-03-01T17:38:20;17.02;;;11.20;;
6531;SDS011;3299;42.004;24.868;2023-03-01T17:40:46;13.73;;;9.98;;
6531;SDS011;3299;42.004;24.868;2023-03-01T17:43:12;12.05;;;9.85;;
6531;SDS011;3299;42.004;24.868;2023-03-01T17:45:38;11.00;;;9.38;;
6531;SDS011;3299;42.004;24.868;2023-03-01T17:48:04;12.10;;;9.60;;
6531;SDS011;3299;42.004;24.868;2023-03-01T17:50:31;13.80;;;11.52;;
6531;SDS011;3299;42.004;24.868;2023-03-01T17:52:57;17.98;;;12.68;;
6531;SDS011;3299;42.004;24.868;2023-03-01T17:55:22;11.50;;;10.10;;
6531;SDS011;3299;42.004;24.868;2023-03-01T17:57:48;10.90;;;9.40;;
6531;SDS011;3299;42.004;24.868;2023-03-01T18:00:15;14.65;;;11.93;;
6531;SDS011;3299;42.004;24.868;2023-03-01T18:02:42;16.73;;;11.73;;
6531;SDS011;3299;42.004;24.868;2023-03-01T18:05:08;15.80;;;11.25;;
6531;SDS011;3299;42.004;24.868;2023-03-01T18:07:34;16.30;;;10.73;;
6531;SDS011;3299;42.004;24.868;2023-03-01T18:10:00;23.45;;;14.32;;
6531;SDS011;3299;42.004;24.868;2023-03-01T18:12:26;24.90;;;16.00;;
6531;SDS011;3299;42.004;24.868;2023-03-01T18:14:51;14.63;;;10.45;;
6531;SDS011;3299;42.004;24.868;2023-03-01T18:17:20;17.30;;;12.40;;
6531;SDS011;3299;42.004;24.868;2023-03-01T18:19:47;15.43;;;11.52;;
6531;SDS011;3299;42.004;24.868;2023-03-01T18:22:12;16.38;;;11.82;;
6531;SDS011;3299;42.004;24.868;2023-03-01T18:24:38;16.63;;;11.65;;
6531;SDS011;3299;42.004;24.868;2023-03-01T18:27:04;21.83;;;14.13;;
6531;SDS011;3299;42.004;24.868;2023-03-01T18:29:29;18.92;;;14.00;;
6531;SDS011;3299;42.004;24.868;2023-03-01T18:31:57;21.08;;;15.43;;
6531;SDS011;3299;42.004;24.868;2023-03-01T18:34:23;16.63;;;13.32;;
6531;SDS011;3299;42.004;24.868;2023-03-01T18:36:48;14.43;;;11.70;;
6531;SDS011;3299;42.004;24.868;2023-03-01T18:39:16;14.55;;;11.30;;
6531;SDS011;3299;42.004;24.868;2023-03-01T18:41:41;16.48;;;12.15;;
6531;SDS011;3299;42.004;24.868;2023-03-01T18:44:08;13.18;;;10.82;;
6531;SDS011;3299;42.004;24.868;2023-03-01T18:46:35;14.35;;;10.13;;
6531;SDS011;3299;42.004;24.868;2023-03-01T18:49:02;14.82;;;10.48;;
6531;SDS011;3299;42.004;24.868;2023-03-01T18:51:28;15.23;;;11.85;;
6531;SDS011;3299;42.004;24.868;2023-03-01T18:53:54;16.63;;;12.50;;
6531;SDS011;3299;42.004;24.868;2023-03-01T18:56:22;17.52;;;12.18;;
6531;SDS011;3299;42.004;24.868;2023-03-01T18:58:48;16.70;;;12.10;;
6531;SDS011;3299;42.004;24.868;2023-03-01T19:01:15;17.25;;;12.52;;
6531;SDS011;3299;42.004;24.868;2023-03-01T19:03:43;26.75;;;17.45;;
6531;SDS011;3299;42.004;24.868;2023-03-01T19:06:08;19.48;;;13.43;;
6531;SDS011;3299;42.004;24.868;2023-03-01T19:08:34;15.88;;;12.15;;
6531;SDS011;3299;42.004;24.868;2023-03-01T19:11:01;18.13;;;12.57;;
6531;SDS011;3299;42.004;24.868;2023-03-01T19:13:29;19.88;;;13.77;;
6531;SDS011;3299;42.004;24.868;2023-03-01T19:16:02;18.02;;;13.90;;
6531;SDS011;3299;42.004;24.868;2023-03-01T19:18:30;22.83;;;14.77;;
6531;SDS011;3299;42.004;24.868;2023-03-01T19:21:02;24.15;;;15.02;;
6531;SDS011;3299;42.004;24.868;2023-03-01T19:23:28;19.27;;;13.07;;
6531;SDS011;3299;42.004;24.868;2023-03-01T19:26:01;16.88;;;12.55;;
6531;SDS011;3299;42.004;24.868;2023-03-01T19:28:28;17.40;;;12.82;;
6531;SDS011;3299;42.004;24.868;2023-03-01T19:31:01;17.55;;;13.23;;
6531;SDS011;3299;42.004;24.868;2023-03-01T19:33:29;17.48;;;13.93;;
6531;SDS011;3299;42.004;24.868;2023-03-01T19:35:56;20.90;;;14.20;;
6531;SDS011;3299;42.004;24.868;2023-03-01T19:38:21;18.70;;;13.73;;
6531;SDS011;3299;42.004;24.868;2023-03-01T19:40:47;16.92;;;12.02;;
6531;SDS011;3299;42.004;24.868;2023-03-01T19:43:13;18.15;;;12.27;;
6531;SDS011;3299;42.004;24.868;2023-03-01T19:45:38;16.42;;;12.55;;
6531;SDS011;3299;42.004;24.868;2023-03-01T19:48:04;19.35;;;12.35;;
6531;SDS011;3299;42.004;24.868;2023-03-01T19:50:30;16.65;;;12.18;;
6531;SDS011;3299;42.004;24.868;2023-03-01T19:52:55;18.02;;;13.55;;
6531;SDS011;3299;42.004;24.868;2023-03-01T19:55:21;18.55;;;11.98;;
6531;SDS011;3299;42.004;24.868;2023-03-01T19:57:46;17.92;;;13.02;;
6531;SDS011;3299;42.004;24.868;2023-03-01T20:00:11;18.33;;;12.02;;
6531;SDS011;3299;42.004;24.868;2023-03-01T20:02:37;17.80;;;11.45;;
6531;SDS011;3299;42.004;24.868;2023-03-01T20:05:03;19.00;;;12.02;;
6531;SDS011;3299;42.004;24.868;2023-03-01T20:07:28;20.00;;;14.98;;
6531;SDS011;3299;42.004;24.868;2023-03-01T20:09:53;15.10;;;12.82;;
6531;SDS011;3299;42.004;24.868;2023-03-01T20:12:19;14.93;;;11.40;;
6531;SDS011;3299;42.004;24.868;2023-03-01T20:14:44;19.05;;;13.82;;
6531;SDS011;3299;42.004;24.868;2023-03-01T20:17:10;15.73;;;11.68;;
6531;SDS011;3299;42.004;24.868;2023-03-01T20:19:35;18.77;;;12.10;;
6531;SDS011;3299;42.004;24.868;2023-03-01T20:22:01;17.45;;;13.25;;
6531;SDS011;3299;42.004;24.868;2023-03-01T20:24:27;16.90;;;11.77;;
6531;SDS011;3299;42.004;24.868;2023-03-01T20:26:56;17.23;;;13.50;;
6531;SDS011;3299;42.004;24.868;2023-03-01T20:29:22;17.23;;;12.77;;
6531;SDS011;3299;42.004;24.868;2023-03-01T20:31:47;16.88;;;11.90;;
6531;SDS011;3299;42.004;24.868;2023-03-01T20:34:13;17.13;;;12.63;;
6531;SDS011;3299;42.004;24.868;2023-03-01T20:36:38;19.63;;;13.90;;
6531;SDS011;3299;42.004;24.868;2023-03-01T20:39:05;22.60;;;17.10;;
6531;SDS011;3299;42.004;24.868;2023-03-01T20:41:30;23.52;;;15.15;;
6531;SDS011;3299;42.004;24.868;2023-03-01T20:43:56;23.35;;;15.95;;
6531;SDS011;3299;42.004;24.868;2023-03-01T20:46:23;25.75;;;16.17;;
6531;SDS011;3299;42.004;24.868;2023-03-01T20:48:50;23.50;;;15.63;;
6531;SDS011;3299;42.004;24.868;2023-03-01T20:51:16;24.10;;;14.85;;
6531;SDS011;3299;42.004;24.868;2023-03-01T20:53:42;24.55;;;16.17;;
6531;SDS011;3299;42.004;24.868;2023-03-01T20:56:09;26.20;;;16.95;;
6531;SDS011;3299;42.004;24.868;2023-03-01T20:58:36;25.25;;;16.73;;
6531;SDS011;3299;42.004;24.868;2023-03-01T21:01:05;21.63;;;16.05;;
6531;SDS011;3299;42.004;24.868;2023-03-01T21:03:32;23.85;;;14.15;;
6531;SDS011;3299;42.004;24.868;2023-03-01T21:05:58;29.38;;;16.45;;
6531;SDS011;3299;42.004;24.868;2023-03-01T21:08:26;23.52;;;14.98;;
6531;SDS011;3299;42.004;24.868;2023-03-01T21:10:53;24.25;;;16.45;;
6531;SDS011;3299;42.004;24.868;2023-03-01T21:13:20;27.25;;;15.27;;
6531;SDS011;3299;42.004;24.868;2023-03-01T21:16:09;29.38;;;15.75;;
6531;SDS011;3299;42.004;24.868;2023-03-01T21:18:37;29.67;;;15.30;;
6531;SDS011;3299;42.004;24.868;2023-03-01T21:21:23;24.88;;;13.93;;
6531;SDS011;3299;42.004;24.868;2023-03-01T21:23:48;23.48;;;14.02;;
6531;SDS011;3299;42.004;24.868;2023-03-01T21:26:18;28.23;;;15.02;;
6531;SDS011;3299;42.004;24.868;2023-03-01T21:28:48;27.25;;;15.50;;
6531;SDS011;3299;42.004;24.868;2023-03-01T21:31:19;28.40;;;15.10;;
6531;SDS011;3299;42.004;24.868;2023-03-01T21:33:47;22.65;;;15.07;;
6531;SDS011;3299;42.004;24.868;2023-03-01T21:36:17;25.75;;;15.20;;
6531;SDS011;3299;42.004;24.868;2023-03-01T21:38:43;25.30;;;14.57;;
6531;SDS011;3299;42.004;24.868;2023-03-01T21:41:11;27.38;;;14.57;;
6531;SDS011;3299;42.004;24.868;2023-03-01T21:43:39;29.08;;;13.82;;
6531;SDS011;3299;42.004;24.868;2023-03-01T21:46:07;16.95;;;11.52;;
6531;SDS011;3299;42.004;24.868;2023-03-01T21:48:36;22.35;;;12.80;;
6531;SDS011;3299;42.004;24.868;2023-03-01T21:51:03;22.48;;;14.38;;
6531;SDS011;3299;42.004;24.868;2023-03-01T21:53:30;22.23;;;12.02;;
6531;SDS011;3299;42.004;24.868;2023-03-01T21:55:57;18.65;;;12.32;;
6531;SDS011;3299;42.004;24.868;2023-03-01T21:58:23;19.10;;;11.52;;
6531;SDS011;3299;42.004;24.868;2023-03-01T22:00:51;19.83;;;12.88;;
6531;SDS011;3299;42.004;24.868;2023-03-01T22:03:18;17.15;;;12.57;;
6531;SDS011;3299;42.004;24.868;2023-03-01T22:05:52;19.60;;;14.18;;
6531;SDS011;3299;42.004;24.868;2023-03-01T22:08:21;19.52;;;13.20;;
6531;SDS011;3299;42.004;24.868;2023-03-01T22:10:46;18.38;;;13.00;;
6531;SDS011;3299;42.004;24.868;2023-03-01T22:13:12;16.05;;;12.52;;
6531;SDS011;3299;42.004;24.868;2023-03-01T22:15:41;22.92;;;13.20;;
6531;SDS011;3299;42.004;24.868;2023-03-01T22:18:07;18.02;;;12.10;;
6531;SDS011;3299;42.004;24.868;2023-03-01T22:20:34;24.13;;;12.95;;
6531;SDS011;3299;42.004;24.868;2023-03-01T22:22:59;20.08;;;11.73;;
6531;SDS011;3299;42.004;24.868;2023-03-01T22:25:25;24.42;;;14.38;;
6531;SDS011;3299;42.004;24.868;2023-03-01T22:27:50;15.20;;;11.82;;
6531;SDS011;3299;42.004;24.868;2023-03-01T22:30:16;18.77;;;12.82;;
6531;SDS011;3299;42.004;24.868;2023-03-01T22:32:41;18.80;;;13.32;;
6531;SDS011;3299;42.004;24.868;2023-03-01T22:35:07;20.35;;;13.80;;
6531;SDS011;3299;42.004;24.868;2023-03-01T22:37:33;19.15;;;12.82;;
6531;SDS011;3299;42.004;24.868;2023-03-01T22:39:58;23.67;;;13.70;;
6531;SDS011;3299;42.004;24.868;2023-03-01T22:42:24;17.48;;;13.70;;
6531;SDS011;3299;42.004;24.868;2023-03-01T22:44:49;19.83;;;13.25;;
6531;SDS011;3299;42.004;24.868;2023-03-01T22:47:15;17.08;;;12.30;;
6531;SDS011;3299;42.004;24.868;2023-03-01T22:49:40;19.95;;;12.27;;
6531;SDS011;3299;42.004;24.868;2023-03-01T22:52:06;18.75;;;12.98;;
6531;SDS011;3299;42.004;24.868;2023-03-01T22:54:34;22.17;;;13.20;;
6531;SDS011;3299;42.004;24.868;2023-03-01T22:57:00;21.42;;;13.75;;
6531;SDS011;3299;42.004;24.868;2023-03-01T22:59:25;22.25;;;13.35;;
6531;SDS011;3299;42.004;24.868;2023-03-01T23:01:51;18.38;;;13.20;;
6531;SDS011;3299;42.004;24.868;2023-03-01T23:04:18;23.52;;;13.50;;
6531;SDS011;3299;42.004;24.868;2023-03-01T23:06:44;20.45;;;13.38;;
6531;SDS011;3299;42.004;24.868;2023-03-01T23:09:29;18.92;;;12.68;;
6531;SDS011;3299;42.004;24.868;2023-03-01T23:11:57;24.15;;;14.73;;
6531;SDS011;3299;42.004;24.868;2023-03-01T23:14:25;22.70;;;13.30;;
6531;SDS011;3299;42.004;24.868;2023-03-01T23:16:53;18.92;;;12.88;;
6531;SDS011;3299;42.004;24.868;2023-03-01T23:19:18;24.65;;;13.30;;
6531;SDS011;3299;42.004;24.868;2023-03-01T23:21:44;14.35;;;11.60;;
6531;SDS011;3299;42.004;24.868;2023-03-01T23:24:17;18.13;;;12.30;;
6531;SDS011;3299;42.004;24.868;2023-03-01T23:26:44;20.58;;;11.43;;
6531;SDS011;3299;42.004;24.868;2023-03-01T23:29:09;17.63;;;12.15;;
6531;SDS011;3299;42.004;24.868;2023-03-01T23:31:35;18.73;;;11.38;;
6531;SDS011;3299;42.004;24.868;2023-03-01T23:34:01;19.10;;;10.85;;
6531;SDS011;3299;42.004;24.868;2023-03-01T23:36:27;19.88;;;12.45;;
6531;SDS011;3299;42.004;24.868;2023-03-01T23:38:55;19.70;;;11.60;;
6531;SDS011;3299;42.004;24.868;2023-03-01T23:41:23;19.75;;;12.82;;
6531;SDS011;3299;42.004;24.868;2023-03-01T23:43:51;22.88;;;11.88;;
6531;SDS011;3299;42.004;24.868;2023-03-01T23:46:19;20.15;;;12.77;;
6531;SDS011;3299;42.004;24.868;2023-03-01T23:48:47;22.92;;;12.85;;
6531;SDS011;3299;42.004;24.868;2023-03-01T23:51:12;23.98;;;13.75;;
6531;SDS011;3299;42.004;24.868;2023-03-01T23:53:44;28.05;;;15.50;;
6531;SDS011;3299;42.004;24.868;2023-03-01T23:56:19;29.00;;;16.15;;
6531;SDS011;3299;42.004;24.868;2023-03-01T23:58:52;25.25;;;15.05;;
